createdAt,value
2019-02-14T00:00:08.695Z,103396.77
2019-02-14T00:02:37.362Z,103388.14
2019-02-14T00:05:06.317Z,103398.53
2019-02-14T00:07:35.047Z,103402.46
2019-02-14T00:10:04.632Z,103400.02
2019-02-14T00:12:33.883Z,103406.58
2019-02-14T00:15:02.577Z,103404.60
2019-02-14T00:17:31.217Z,103407.48
2019-02-14T00:19:59.759Z,103407.70
2019-02-14T00:22:28.290Z,103396.97
2019-02-14T00:24:56.848Z,103391.28
2019-02-14T00:27:25.457Z,103396.34
2019-02-14T00:29:53.931Z,103397.77
2019-02-14T00:32:22.511Z,103400.67
2019-02-14T00:34:51.071Z,103403.45
2019-02-14T00:37:19.579Z,103406.25
2019-02-14T00:39:48.062Z,103401.74
2019-02-14T00:42:16.576Z,103404.45
2019-02-14T00:44:45.278Z,103404.67
2019-02-14T00:47:13.893Z,103407.69
2019-02-14T00:49:42.496Z,103406.36
2019-02-14T00:52:11.065Z,103406.78
2019-02-14T00:54:39.550Z,103408.17
2019-02-14T00:57:08.095Z,103407.53
2019-02-14T00:59:36.636Z,103408.06
2019-02-14T01:02:05.226Z,103416.36
2019-02-14T01:04:33.766Z,103402.73
2019-02-14T01:07:02.459Z,103402.09
2019-02-14T01:09:31.099Z,103408.72
2019-02-14T01:11:59.647Z,103399.62
2019-02-14T01:14:28.226Z,103402.00
2019-02-14T01:16:56.778Z,103402.61
2019-02-14T01:19:25.346Z,103400.25
2019-02-14T01:21:53.954Z,103398.48
2019-02-14T01:24:22.491Z,103396.02
2019-02-14T01:26:51.124Z,103392.81
2019-02-14T01:29:19.682Z,103393.72
2019-02-14T01:31:48.258Z,103397.66
2019-02-14T01:34:16.816Z,103393.84
2019-02-14T01:36:45.356Z,103397.56
2019-02-14T01:39:14.020Z,103398.96
2019-02-14T01:41:42.535Z,103390.47
2019-02-14T01:44:11.144Z,103395.19
2019-02-14T01:46:39.660Z,103398.16
2019-02-14T01:49:08.272Z,103395.98
2019-02-14T01:51:36.853Z,103395.75
2019-02-14T01:54:05.448Z,103397.09
2019-02-14T01:56:33.997Z,103394.29
2019-02-14T01:59:04.957Z,103402.90
2019-02-14T02:01:33.525Z,103402.20
2019-02-14T02:04:02.049Z,103392.41
2019-02-14T02:06:30.615Z,103387.03
2019-02-14T02:08:59.227Z,103386.66
2019-02-14T02:11:27.761Z,103387.14
2019-02-14T02:13:56.460Z,103381.71
2019-02-14T02:16:24.917Z,103384.47
2019-02-14T02:18:53.505Z,103375.42
2019-02-14T02:21:22.136Z,103373.80
2019-02-14T02:23:50.644Z,103375.23
2019-02-14T02:26:19.259Z,103377.89
2019-02-14T02:28:47.832Z,103384.94
2019-02-14T02:31:16.449Z,103387.39
2019-02-14T02:33:45.088Z,103390.55
2019-02-14T02:36:13.746Z,103389.52
2019-02-14T02:38:42.233Z,103392.92
2019-02-14T02:41:10.737Z,103394.95
2019-02-14T02:43:39.302Z,103400.14
2019-02-14T02:46:07.814Z,103393.55
2019-02-14T02:48:36.432Z,103386.36
2019-02-14T02:51:05.064Z,103383.67
2019-02-14T02:53:33.649Z,103389.31
2019-02-14T02:56:02.289Z,103394.34
2019-02-14T02:58:30.878Z,103393.09
2019-02-14T03:00:59.497Z,103388.91
2019-02-14T03:03:28.069Z,103384.88
2019-02-14T03:05:56.623Z,103388.63
2019-02-14T03:08:25.219Z,103387.31
2019-02-14T03:10:54.232Z,103381.59
2019-02-14T03:13:22.696Z,103386.55
2019-02-14T03:15:51.195Z,103389.05
2019-02-14T03:18:19.861Z,103398.08
2019-02-14T03:20:48.545Z,103388.05
2019-02-14T03:23:17.150Z,103380.97
2019-02-14T03:25:45.763Z,103388.84
2019-02-14T03:28:14.450Z,103384.50
2019-02-14T03:30:43.250Z,103390.70
2019-02-14T03:33:11.779Z,103388.14
2019-02-14T03:35:40.317Z,103399.63
2019-02-14T03:38:08.825Z,103395.38
2019-02-14T03:40:37.480Z,103392.91
2019-02-14T03:43:07.530Z,103394.02
2019-02-14T03:45:36.035Z,103398.27
2019-02-14T03:48:04.632Z,103402.09
2019-02-14T03:50:33.150Z,103396.91
2019-02-14T03:53:01.737Z,103389.23
2019-02-14T03:55:30.214Z,103392.45
2019-02-14T03:57:58.763Z,103389.47
2019-02-14T04:00:27.276Z,103400.43
2019-02-14T04:02:55.825Z,103399.20
2019-02-14T04:05:24.401Z,103401.16
2019-02-14T04:07:52.968Z,103396.52
2019-02-14T04:10:21.519Z,103398.39
2019-02-14T04:12:50.067Z,103389.59
2019-02-14T04:15:19.126Z,103393.84
2019-02-14T04:17:47.676Z,103405.20
2019-02-14T04:20:16.109Z,103401.69
2019-02-14T04:22:44.651Z,103404.08
2019-02-14T04:25:13.225Z,103400.88
2019-02-14T04:27:41.772Z,103412.34
2019-02-14T04:30:12.252Z,103408.30
2019-02-14T04:32:40.826Z,103407.62
2019-02-14T04:35:09.451Z,103410.03
2019-02-14T04:37:37.983Z,103419.06
2019-02-14T04:40:15.598Z,103415.70
2019-02-14T04:42:44.030Z,103419.58
2019-02-14T04:45:13.758Z,103411.56
2019-02-14T04:47:42.812Z,103422.73
2019-02-14T04:50:12.119Z,103418.02
2019-02-14T04:52:40.712Z,103418.78
2019-02-14T04:55:12.359Z,103423.30
2019-02-14T04:57:40.972Z,103419.52
2019-02-14T05:00:12.464Z,103415.94
2019-02-14T05:02:41.081Z,103415.31
2019-02-14T05:05:10.281Z,103412.16
2019-02-14T05:07:38.896Z,103415.94
2019-02-14T05:10:09.399Z,103416.14
2019-02-14T05:12:38.031Z,103412.77
2019-02-14T05:15:08.383Z,103416.79
2019-02-14T05:17:37.069Z,103416.37
2019-02-14T05:20:11.183Z,103420.46
2019-02-14T05:22:39.791Z,103416.66
2019-02-14T05:25:09.321Z,103427.28
2019-02-14T05:27:37.886Z,103432.76
2019-02-14T05:30:15.025Z,103425.33
2019-02-14T05:32:43.479Z,103418.99
2019-02-14T05:35:12.129Z,103427.63
2019-02-14T05:37:40.567Z,103424.83
2019-02-14T05:40:10.656Z,103430.91
2019-02-14T05:42:39.453Z,103435.77
2019-02-14T05:45:13.280Z,103438.86
2019-02-14T05:47:41.906Z,103434.73
2019-02-14T05:50:12.941Z,103441.64
2019-02-14T05:52:41.615Z,103439.29
2019-02-14T05:55:11.700Z,103441.50
2019-02-14T05:57:41.425Z,103442.22
2019-02-14T06:00:18.740Z,103441.97
2019-02-14T06:02:47.396Z,103445.67
2019-02-14T06:05:16.061Z,103440.73
2019-02-14T06:07:44.597Z,103444.33
2019-02-14T06:10:13.291Z,103447.30
2019-02-14T06:12:41.894Z,103440.95
2019-02-14T06:15:11.836Z,103437.36
2019-02-14T06:17:40.436Z,103451.38
2019-02-14T06:20:10.559Z,103459.40
2019-02-14T06:22:39.193Z,103462.39
2019-02-14T06:25:09.373Z,103457.95
2019-02-14T06:27:37.906Z,103457.11
2019-02-14T06:30:09.289Z,103465.25
2019-02-14T06:32:37.879Z,103465.98
2019-02-14T06:35:07.854Z,103467.59
2019-02-14T06:37:36.381Z,103468.98
2019-02-14T06:40:07.819Z,103468.88
2019-02-14T06:42:36.415Z,103468.88
2019-02-14T06:45:07.608Z,103478.36
2019-02-14T06:47:36.224Z,103483.22
2019-02-14T06:50:05.829Z,103489.61
2019-02-14T06:52:34.423Z,103488.02
2019-02-14T06:55:03.050Z,103487.05
2019-02-14T06:57:31.650Z,103481.01
2019-02-14T07:00:00.568Z,103480.06
2019-02-14T07:02:29.160Z,103487.34
2019-02-14T07:04:57.695Z,103488.20
2019-02-14T07:07:26.225Z,103492.98
2019-02-14T07:09:54.733Z,103497.34
2019-02-14T07:12:23.345Z,103498.75
2019-02-14T07:14:51.926Z,103497.50
2019-02-14T07:17:20.495Z,103499.09
2019-02-14T07:19:49.007Z,103492.61
2019-02-14T07:22:17.632Z,103491.89
2019-02-14T07:24:46.115Z,103496.68
2019-02-14T07:27:14.641Z,103500.13
2019-02-14T07:29:43.178Z,103512.73
2019-02-14T07:32:11.791Z,103521.21
2019-02-14T07:34:40.247Z,103520.64
2019-02-14T07:37:08.862Z,103521.17
2019-02-14T07:39:37.404Z,103514.55
2019-02-14T07:42:06.005Z,103507.77
2019-02-14T07:44:34.535Z,103505.97
2019-02-14T07:47:03.096Z,103508.13
2019-02-14T07:49:31.611Z,103513.95
2019-02-14T07:52:00.151Z,103516.50
2019-02-14T07:54:28.601Z,103518.54
2019-02-14T07:56:57.228Z,103514.06
2019-02-14T07:59:25.730Z,103505.93
2019-02-14T08:01:54.269Z,103502.23
2019-02-14T08:04:22.742Z,103495.16
2019-02-14T08:06:51.774Z,103490.95
2019-02-14T08:09:20.337Z,103480.32
2019-02-14T08:11:48.906Z,103475.12
2019-02-14T08:14:17.488Z,103473.98
2019-02-14T08:16:46.172Z,103476.36
2019-02-14T08:19:14.598Z,103477.17
2019-02-14T08:21:43.114Z,103489.40
2019-02-14T08:24:11.670Z,103483.15
2019-02-14T08:26:40.224Z,103476.70
2019-02-14T08:29:12.737Z,103473.77
2019-02-14T08:31:41.237Z,103464.34
2019-02-14T08:34:09.722Z,103465.64
2019-02-14T08:36:38.260Z,103475.07
2019-02-14T08:39:06.848Z,103473.58
2019-02-14T08:41:35.479Z,103480.06
2019-02-14T08:44:04.045Z,103479.77
2019-02-14T08:46:32.630Z,103481.19
2019-02-14T08:49:01.139Z,103477.59
2019-02-14T08:51:29.753Z,103474.28
2019-02-14T08:53:58.344Z,103472.45
2019-02-14T08:56:28.404Z,103462.89
2019-02-14T08:58:56.918Z,103458.91
2019-02-14T09:01:25.519Z,103467.47
2019-02-14T09:03:54.193Z,103479.84
2019-02-14T09:06:22.732Z,103487.02
2019-02-14T09:08:51.245Z,103485.02
2019-02-14T09:11:19.789Z,103477.36
2019-02-14T09:13:48.270Z,103476.88
2019-02-14T09:16:16.879Z,103472.00
2019-02-14T09:18:45.509Z,103471.08
2019-02-14T09:21:14.079Z,103476.59
2019-02-14T09:23:42.684Z,103477.00
2019-02-14T09:26:11.358Z,103475.63
2019-02-14T09:28:39.982Z,103474.00
2019-02-14T09:31:08.603Z,103474.77
2019-02-14T09:33:37.173Z,103465.14
2019-02-14T09:36:05.794Z,103467.98
2019-02-14T09:38:34.347Z,103424.71
2019-02-14T09:41:02.872Z,103456.84
2019-02-14T09:43:31.502Z,103459.47
2019-02-14T09:46:00.079Z,103462.93
2019-02-14T09:48:28.602Z,103463.55
2019-02-14T09:50:57.211Z,103464.67
2019-02-14T09:53:25.805Z,103463.61
2019-02-14T09:55:54.366Z,103462.97
2019-02-14T09:58:22.962Z,103462.09
2019-02-14T10:00:51.465Z,103464.75
2019-02-14T10:03:20.014Z,103455.94
2019-02-14T10:05:48.599Z,103456.56
2019-02-14T10:08:17.141Z,103453.05
2019-02-14T10:10:45.654Z,103454.16
2019-02-14T10:13:14.238Z,103455.78
2019-02-14T10:15:42.827Z,103452.31
2019-02-14T10:18:11.274Z,103454.66
2019-02-14T10:20:39.804Z,103457.25
2019-02-14T10:23:08.334Z,103455.08
2019-02-14T10:25:37.045Z,103453.45
2019-02-14T10:28:05.699Z,103448.46
2019-02-14T10:30:34.326Z,103445.29
2019-02-14T10:33:02.903Z,103448.08
2019-02-14T10:35:31.538Z,103451.48
2019-02-14T10:38:00.065Z,103455.52
2019-02-14T10:40:28.632Z,103458.97
2019-02-14T10:42:57.225Z,103466.87
2019-02-14T10:45:25.819Z,103456.53
2019-02-14T10:47:54.357Z,103458.28
2019-02-14T10:50:22.959Z,103457.20
2019-02-14T10:52:51.508Z,103456.23
2019-02-14T10:55:20.143Z,103452.16
2019-02-14T10:57:48.742Z,103448.48
2019-02-14T11:00:25.350Z,103447.83
2019-02-14T11:02:53.993Z,103443.31
2019-02-14T11:05:22.609Z,103441.75
2019-02-14T11:07:51.191Z,103447.71
2019-02-14T11:10:19.843Z,103441.17
2019-02-14T11:12:48.431Z,103447.56
2019-02-14T11:15:21.781Z,103444.33
2019-02-14T11:17:50.408Z,103441.62
2019-02-14T11:20:19.087Z,103441.95
2019-02-14T11:22:48.933Z,103434.32
2019-02-14T11:25:20.832Z,103431.88
2019-02-14T11:27:49.472Z,103426.45
2019-02-14T11:30:18.100Z,103423.45
2019-02-14T11:32:46.677Z,103417.13
2019-02-14T11:35:15.292Z,103416.59
2019-02-14T11:37:44.016Z,103413.86
2019-02-14T11:40:15.519Z,103411.70
2019-02-14T11:42:44.113Z,103414.98
2019-02-14T11:45:18.047Z,103407.62
2019-02-14T11:47:46.668Z,103410.63
2019-02-14T11:50:15.259Z,103404.88
2019-02-14T11:52:43.815Z,103402.94
2019-02-14T11:55:12.612Z,103391.20
2019-02-14T11:57:41.237Z,103392.31
2019-02-14T12:00:17.097Z,103388.50
2019-02-14T12:02:54.713Z,103393.14
2019-02-14T12:05:16.112Z,103394.79
2019-02-14T12:07:44.662Z,103390.70
2019-02-14T12:10:14.004Z,103383.28
2019-02-14T12:12:42.618Z,103377.01
2019-02-14T12:15:12.632Z,103380.55
2019-02-14T12:17:41.263Z,103378.10
2019-02-14T12:20:14.750Z,103370.48
2019-02-14T12:22:46.875Z,103354.09
2019-02-14T12:25:18.582Z,103364.16
2019-02-14T12:27:47.133Z,103356.23
2019-02-14T12:30:16.520Z,103348.86
2019-02-14T12:32:45.059Z,103344.55
2019-02-14T12:35:13.569Z,103340.47
2019-02-14T12:37:42.176Z,103331.16
2019-02-14T12:40:13.178Z,103327.87
2019-02-14T12:42:41.808Z,103331.39
2019-02-14T12:45:20.219Z,103328.96
2019-02-14T12:47:43.174Z,103329.78
2019-02-14T12:50:11.789Z,103332.80
2019-02-14T12:52:41.372Z,103326.53
2019-02-14T12:55:09.990Z,103316.97
2019-02-14T12:57:38.569Z,103322.97
2019-02-14T13:00:15.815Z,103324.36
2019-02-14T13:02:44.408Z,103327.63
2019-02-14T13:05:13.191Z,103329.81
2019-02-14T13:07:41.786Z,103324.91
2019-02-14T13:10:12.537Z,103326.28
2019-02-14T13:12:41.128Z,103327.09
2019-02-14T13:15:18.244Z,103315.91
2019-02-14T13:17:49.687Z,103320.26
2019-02-14T13:20:18.714Z,103327.08
2019-02-14T13:22:47.334Z,103332.55
2019-02-14T13:25:16.032Z,103330.63
2019-02-14T13:27:44.743Z,103327.64
2019-02-14T13:30:18.743Z,103325.97
2019-02-14T13:32:47.421Z,103327.59
2019-02-14T13:35:16.016Z,103331.94
2019-02-14T13:37:44.648Z,103319.65
2019-02-14T13:40:13.377Z,103332.22
2019-02-14T13:42:42.000Z,103319.91
2019-02-14T13:45:13.346Z,103319.84
2019-02-14T13:47:41.852Z,103314.03
2019-02-14T13:50:12.123Z,103311.28
2019-02-14T13:52:40.812Z,103309.94
2019-02-14T13:55:10.686Z,103309.17
2019-02-14T13:57:39.349Z,103302.38
2019-02-14T14:00:25.853Z,103300.73
2019-02-14T14:02:54.382Z,103305.42
2019-02-14T14:05:22.989Z,103298.61
2019-02-14T14:07:51.584Z,103301.61
2019-02-14T14:10:20.184Z,103300.23
2019-02-14T14:12:48.900Z,103295.88
2019-02-14T14:15:17.567Z,103288.23
2019-02-14T14:17:46.152Z,103285.55
2019-02-14T14:20:14.693Z,103278.16
2019-02-14T14:22:43.260Z,103278.14
2019-02-14T14:25:12.538Z,103277.00
2019-02-14T14:27:41.010Z,103268.25
2019-02-14T14:30:14.408Z,103264.38
2019-02-14T14:32:43.075Z,103259.92
2019-02-14T14:35:12.177Z,103258.00
2019-02-14T14:37:40.769Z,103255.52
2019-02-14T14:40:12.256Z,103258.01
2019-02-14T14:42:48.264Z,103257.17
2019-02-14T14:45:18.462Z,103258.80
2019-02-14T14:47:47.025Z,103251.62
2019-02-14T14:50:15.639Z,103248.07
2019-02-14T14:52:44.363Z,103245.88
2019-02-14T14:55:12.941Z,103252.45
2019-02-14T14:57:41.462Z,103246.95
2019-02-14T15:00:11.126Z,103248.56
2019-02-14T15:02:39.730Z,103242.77
2019-02-14T15:05:09.016Z,103238.86
2019-02-14T15:07:37.634Z,103236.74
2019-02-14T15:10:07.229Z,103231.23
2019-02-14T15:12:35.732Z,103236.60
2019-02-14T15:15:04.763Z,103231.84
2019-02-14T15:17:33.435Z,103222.20
2019-02-14T15:20:02.046Z,103224.06
2019-02-14T15:22:30.648Z,103221.81
2019-02-14T15:24:59.210Z,103223.70
2019-02-14T15:27:27.796Z,103223.97
2019-02-14T15:29:56.347Z,103216.31
2019-02-14T15:32:24.947Z,103219.57
2019-02-14T15:34:53.484Z,103209.18
2019-02-14T15:37:21.938Z,103211.95
2019-02-14T15:39:50.620Z,103214.23
2019-02-14T15:42:19.185Z,103215.43
2019-02-14T15:44:47.771Z,103216.07
2019-02-14T15:47:16.315Z,103215.56
2019-02-14T15:49:46.870Z,103215.14
2019-02-14T15:52:15.072Z,103209.48
2019-02-14T15:54:43.566Z,103210.06
2019-02-14T15:57:12.067Z,103210.93
2019-02-14T15:59:43.492Z,103212.32
2019-02-14T16:02:12.374Z,103206.66
2019-02-14T16:04:40.979Z,103211.06
2019-02-14T16:07:09.544Z,103205.34
2019-02-14T16:09:41.032Z,103211.41
2019-02-14T16:12:08.683Z,103214.13
2019-02-14T16:14:37.279Z,103211.97
2019-02-14T16:17:06.746Z,103212.22
2019-02-14T16:19:36.562Z,103208.94
2019-02-14T16:22:05.593Z,103205.09
2019-02-14T16:24:34.191Z,103209.98
2019-02-14T16:27:03.325Z,103209.37
2019-02-14T16:29:32.173Z,103217.47
2019-02-14T16:32:00.621Z,103221.49
2019-02-14T16:34:29.265Z,103219.75
2019-02-14T16:36:57.865Z,103215.86
2019-02-14T16:39:28.534Z,103219.85
2019-02-14T16:41:57.121Z,103224.62
2019-02-14T16:44:25.664Z,103217.16
2019-02-14T16:46:54.257Z,103218.67
2019-02-14T16:49:22.918Z,103223.42
2019-02-14T16:51:51.562Z,103220.04
2019-02-14T16:54:20.080Z,103216.03
2019-02-14T16:56:48.557Z,103217.58
2019-02-14T16:59:17.161Z,103223.94
2019-02-14T17:01:45.918Z,103219.98
2019-02-14T17:04:14.479Z,103219.63
2019-02-14T17:06:43.134Z,103218.68
2019-02-14T17:09:11.783Z,103221.93
2019-02-14T17:11:40.450Z,103230.37
2019-02-14T17:14:08.891Z,103229.84
2019-02-14T17:16:37.344Z,103229.98
2019-02-14T17:19:05.984Z,103240.30
2019-02-14T17:21:34.530Z,103238.00
2019-02-14T17:24:03.115Z,103238.09
2019-02-14T17:26:31.826Z,103242.28
2019-02-14T17:29:00.392Z,103238.34
2019-02-14T17:31:29.004Z,103236.75
2019-02-14T17:33:57.580Z,103234.40
2019-02-14T17:36:26.188Z,103243.87
2019-02-14T17:38:54.682Z,103236.89
2019-02-14T17:41:23.223Z,103242.69
2019-02-14T17:43:54.558Z,103239.78
2019-02-14T17:46:23.100Z,103237.63
2019-02-14T17:48:51.737Z,103235.44
2019-02-14T17:51:20.327Z,103239.09
2019-02-14T17:53:48.761Z,103246.50
2019-02-14T17:56:17.390Z,103238.05
2019-02-14T17:58:45.893Z,103238.05
2019-02-14T18:01:14.789Z,103248.94
2019-02-14T18:03:43.304Z,103248.39
2019-02-14T18:06:11.852Z,103248.73
2019-02-14T18:08:40.413Z,103245.08
2019-02-14T18:11:09.048Z,103245.38
2019-02-14T18:13:37.612Z,103245.72
2019-02-14T18:16:06.185Z,103252.58
2019-02-14T18:18:34.867Z,103242.59
2019-02-14T18:21:03.498Z,103247.08
2019-02-14T18:23:32.026Z,103253.44
2019-02-14T18:26:00.608Z,103256.53
2019-02-14T18:28:29.183Z,103259.65
2019-02-14T18:30:57.762Z,103258.16
2019-02-14T18:33:26.403Z,103256.13
2019-02-14T18:35:54.999Z,103263.29
2019-02-14T18:38:24.069Z,103260.59
2019-02-14T18:40:52.664Z,103263.44
2019-02-14T18:43:21.228Z,103255.66
2019-02-14T18:45:49.784Z,103254.74
2019-02-14T18:48:18.414Z,103255.53
2019-02-14T18:50:46.967Z,103255.08
2019-02-14T18:53:15.489Z,103260.72
2019-02-14T18:55:43.998Z,103256.95
2019-02-14T18:58:12.620Z,103257.05
2019-02-14T19:00:41.260Z,103251.20
2019-02-14T19:03:09.881Z,103248.34
2019-02-14T19:05:38.452Z,103254.86
2019-02-14T19:08:06.937Z,103250.58
2019-02-14T19:10:35.417Z,103243.91
2019-02-14T19:13:04.101Z,103250.35
2019-02-14T19:15:32.776Z,103248.61
2019-02-14T19:18:01.415Z,103247.95
2019-02-14T19:20:30.010Z,103251.46
2019-02-14T19:22:58.634Z,103260.85
2019-02-14T19:25:29.650Z,103260.44
2019-02-14T19:27:57.571Z,103252.25
2019-02-14T19:30:26.207Z,103247.45
2019-02-14T19:32:54.832Z,103256.77
2019-02-14T19:35:23.577Z,103253.75
2019-02-14T19:37:53.179Z,103259.27
2019-02-14T19:40:21.855Z,103252.73
2019-02-14T19:42:50.330Z,103254.95
2019-02-14T19:45:18.914Z,103248.56
2019-02-14T19:47:47.616Z,103251.22
2019-02-14T19:50:16.190Z,103249.09
2019-02-14T19:52:44.750Z,103255.08
2019-02-14T19:55:13.346Z,103249.73
2019-02-14T19:57:41.851Z,103258.89
2019-02-14T20:00:12.499Z,103247.83
2019-02-14T20:02:41.088Z,103251.27
2019-02-14T20:05:10.306Z,103245.28
2019-02-14T20:07:38.921Z,103244.45
2019-02-14T20:10:15.624Z,103245.80
2019-02-14T20:12:44.185Z,103242.33
2019-02-14T20:15:17.959Z,103246.61
2019-02-14T20:17:46.605Z,103238.13
2019-02-14T20:20:15.225Z,103240.48
2019-02-14T20:22:43.877Z,103239.81
2019-02-14T20:25:15.439Z,103239.09
2019-02-14T20:27:43.961Z,103226.99
2019-02-14T20:30:12.557Z,103227.29
2019-02-14T20:32:41.122Z,103228.64
2019-02-14T20:35:09.900Z,103231.03
2019-02-14T20:37:38.523Z,103232.92
2019-02-14T20:40:09.577Z,103237.31
2019-02-14T20:42:38.144Z,103233.54
2019-02-14T20:45:09.978Z,103236.68
2019-02-14T20:47:38.616Z,103236.68
2019-02-14T20:50:10.133Z,103246.54
2019-02-14T20:52:38.702Z,103240.45
2019-02-14T20:55:10.237Z,103235.08
2019-02-14T20:57:38.921Z,103244.77
2019-02-14T21:00:11.848Z,103232.47
2019-02-14T21:02:40.443Z,103235.00
2019-02-14T21:05:09.101Z,103233.02
2019-02-14T21:07:37.679Z,103239.12
2019-02-14T21:10:07.755Z,103231.36
2019-02-14T21:12:36.403Z,103225.74
2019-02-14T21:15:06.116Z,103224.75
2019-02-14T21:17:34.716Z,103224.94
2019-02-14T21:20:03.517Z,103219.04
2019-02-14T21:22:32.125Z,103222.77
2019-02-14T21:25:00.715Z,103219.71
2019-02-14T21:27:29.584Z,103219.71
2019-02-14T21:29:58.106Z,103216.30
2019-02-14T21:32:26.816Z,103222.10
2019-02-14T21:34:55.460Z,103222.02
2019-02-14T21:37:24.162Z,103219.21
2019-02-14T21:39:52.901Z,103218.08
2019-02-14T21:42:23.186Z,103211.67
2019-02-14T21:44:51.781Z,103210.55
2019-02-14T21:47:20.344Z,103216.52
2019-02-14T21:49:48.915Z,103211.27
2019-02-14T21:52:17.433Z,103209.72
2019-02-14T21:54:46.064Z,103217.78
2019-02-14T21:57:14.784Z,103217.99
2019-02-14T21:59:43.426Z,103222.72
2019-02-14T22:02:11.997Z,103216.34
2019-02-14T22:04:42.122Z,103221.50
2019-02-14T22:07:11.556Z,103214.36
2019-02-14T22:09:40.285Z,103215.09
2019-02-14T22:12:09.914Z,103221.38
2019-02-14T22:14:38.582Z,103222.02
2019-02-14T22:17:07.087Z,103225.52
2019-02-14T22:19:35.773Z,103225.43
2019-02-14T22:22:04.427Z,103219.42
2019-02-14T22:24:33.001Z,103223.56
2019-02-14T22:27:01.554Z,103215.30
2019-02-14T22:29:30.239Z,103215.61
2019-02-14T22:31:58.876Z,103219.02
2019-02-14T22:34:27.403Z,103223.96
2019-02-14T22:36:55.942Z,103226.85
2019-02-14T22:39:26.365Z,103225.80
2019-02-14T22:41:54.830Z,103223.53
2019-02-14T22:44:24.075Z,103229.52
2019-02-14T22:46:52.642Z,103229.95
2019-02-14T22:49:21.175Z,103223.23
2019-02-14T22:51:49.611Z,103222.11
2019-02-14T22:54:18.202Z,103222.27
2019-02-14T22:56:47.111Z,103226.41
2019-02-14T22:59:15.747Z,103223.00
2019-02-14T23:01:46.437Z,103224.88
2019-02-14T23:04:15.041Z,103216.52
2019-02-14T23:06:43.498Z,103217.36
2019-02-14T23:09:12.107Z,103222.51
2019-02-14T23:11:40.654Z,103216.94
2019-02-14T23:14:09.252Z,103216.53
2019-02-14T23:16:37.919Z,103217.34
2019-02-14T23:19:06.538Z,103220.23
2019-02-14T23:21:36.008Z,103217.86
2019-02-14T23:24:04.525Z,103216.84
2019-02-14T23:26:33.186Z,103217.65
2019-02-14T23:29:01.736Z,103219.09
2019-02-14T23:31:30.290Z,103219.40
2019-02-14T23:33:58.771Z,103218.98
2019-02-14T23:36:27.366Z,103223.42
2019-02-14T23:38:56.245Z,103219.25
2019-02-14T23:41:24.873Z,103227.72
2019-02-14T23:43:53.413Z,103226.80
2019-02-14T23:46:21.914Z,103224.81
2019-02-14T23:48:50.441Z,103221.59
2019-02-14T23:51:18.984Z,103231.44
2019-02-14T23:53:47.534Z,103227.63
2019-02-14T23:56:16.189Z,103227.63
2019-02-14T23:58:44.823Z,103229.32
